Enter the Airport ICAO Code

Search by Airport or City

Current Weather

LEAM | Almería Airport

Almería, Andalusia, Spain

Last Update 20 Minutes Ago

Rain Shower

Temperature of 13 ºC

Light to Moderate Winds from SouthEast

Temperature

13 ºC

Dew Point Temperature

09 ºC

Relative Humidity

76.76 %

Wind Direction

SouthEast (120º, Without Significant Variations)

Wind Velocity

11 km/h (06 kt)

Gusts

None

Visibility

Greater than 10 Kilometers

Sea Level Pressure

1018 hPa (Hectopascals)

Layers of Clouds

30% to 60% of Sky Covered with Towering Cumulus from 914 mts (3000 ft) Above Ground Level.

30% to 60% of Sky Covered from 1524 mts (5000 ft) Above Ground Level.

METAR LEAM 090930Z 12006KT 9999 VCSH SCT030TCU SCT050 13/09 Q1018

Weather Forecast

LEAM | Almería Airport

Almería, Andalusia, Spain

Forecast valid for the next 23 Hours

From now on it is expected:

Partly Cloudy Sky

Moderate Winds from East

In 1 hour it is expected the begining of 8 hours with intermittent periods of:

Rain

In 8 to 10 hours it is expected the begining of:

Light to Moderate Winds from North

Maximum Temperature

18 ºC in 5 Hours

Minimum Temperature

09 ºC in 20 Hours

TAF LEAM 090928Z 0909/1009 07012KT 9999 SCT035 TX18/0915Z TN09/1006Z PROB30 TEMPO 0911/0919 4000 SHRA SCT030TCU BECMG 0918/0920 34006KT